カラチ の空港の天気 - METARとTAF

ジンナー国際空港(カラチ) ( OPKC / KHI ) - パキスタン Karachi
飛行場実況気象(Metar)
観測時間09/23 03:25 PKT (09/22 22:25 UTC)
風向・風速西北西 4m/s
視程6000m
天気現象
全天の8割程度の雲 雲底高度 610m
気温28℃
湿度70%
気圧1003hPa
METAROPKC 222225Z 30007KT 6000 BKN020 28/22 Q1003 NOSIG
過去の天気等 Google飛行場航空写真 Wunderground天気予報

過去48時間のMETAR

飛行場予報(TAF)
発表時間: 9/22 20:30 PKT (9/22 15:30 UTC)
予報対象時間: 22日23時 PKT ~ 24日5時 PKT
風向・風速西南西 4m/s 瞬間風速 9m/s
視程6000m
全天の8割程度の雲 雲底高度 610m
22日23時 PKT ~ 23日1時 PKT に徐々に
風向・風速西 5m/s 瞬間風速 10m/s
視程5000m
天気現象煙霧
全天の4割程度の雲 雲底高度 910m
全天の4割程度の雲 雲底高度 3050m
23日5時 PKT ~ 23日9時 PKT に一時的に
風向・風速西南西 5m/s
視程4000m
天気現象弱い雨
少しの塔状積雲 雲底高度 760m
全天の4割程度の雲 雲底高度 1070m
全天を覆う雲 雲底高度 2440m
23日23時 PKT ~ 24日1時 PKT に徐々に
風向・風速西 3m/s 瞬間風速 8m/s
視程2000m
天気現象雷雨
少しの積乱雲 雲底高度 760m
全天の4割程度の雲 雲底高度 1220m
全天を覆う雲 雲底高度 2440m
TAF OPKC 221530Z 2218/2324 24008G18KT 6000 BKN020
BECMG 2218/2220 27010G20KT 5000 HZ SCT030 SCT100
TEMPO 2300/2304 25010KT 4000 -RA FEW025TCU SCT035 OVC080
BECMG 2318/2320 27006G16KT 2000 TSRA FEW025CB SCT040 OVC080